sensor_id;sensor_type;location;lat;lon;timestamp;pressure;altitude;pressure_sealevel;temperature;humidity
80149;BME280;69473;42.426;26.644;2023-07-28T00:00:06;98913.75;;;17.35;52.81
80149;BME280;69473;42.426;26.644;2023-07-28T00:02:32;98913.75;;;17.35;53.72
80149;BME280;69473;42.426;26.644;2023-07-28T00:04:57;98906.91;;;17.30;53.38
80149;BME280;69473;42.426;26.644;2023-07-28T00:07:23;98919.28;;;17.25;53.41
80149;BME280;69473;42.426;26.644;2023-07-28T00:09:48;98920.28;;;17.21;53.45
80149;BME280;69473;42.426;26.644;2023-07-28T00:12:14;98926.91;;;17.05;53.14
80149;BME280;69473;42.426;26.644;2023-07-28T00:14:39;98930.22;;;17.10;54.64
80149;BME280;69473;42.426;26.644;2023-07-28T00:17:05;98931.69;;;17.20;52.57
80149;BME280;69473;42.426;26.644;2023-07-28T00:19:31;98932.25;;;17.30;52.75
80149;BME280;69473;42.426;26.644;2023-07-28T00:21:56;98928.50;;;17.09;52.53
80149;BME280;69473;42.426;26.644;2023-07-28T00:24:22;98938.38;;;17.01;55.71
80149;BME280;69473;42.426;26.644;2023-07-28T00:26:48;98941.53;;;16.82;55.08
80149;BME280;69473;42.426;26.644;2023-07-28T00:29:13;98939.44;;;16.94;54.27
80149;BME280;69473;42.426;26.644;2023-07-28T00:31:38;98940.28;;;16.94;55.97
80149;BME280;69473;42.426;26.644;2023-07-28T00:34:04;98938.09;;;16.80;56.09
80149;BME280;69473;42.426;26.644;2023-07-28T00:36:30;98944.91;;;16.53;57.79
80149;BME280;69473;42.426;26.644;2023-07-28T00:38:57;98938.09;;;16.48;59.15
80149;BME280;69473;42.426;26.644;2023-07-28T00:41:22;98945.16;;;16.46;58.69
80149;BME280;69473;42.426;26.644;2023-07-28T00:43:48;98933.94;;;16.40;58.51
80149;BME280;69473;42.426;26.644;2023-07-28T00:46:14;98930.34;;;16.45;58.62
80149;BME280;69473;42.426;26.644;2023-07-28T00:48:41;98922.38;;;16.49;58.19
80149;BME280;69473;42.426;26.644;2023-07-28T00:51:07;98917.91;;;16.53;58.67
80149;BME280;69473;42.426;26.644;2023-07-28T00:53:33;98910.38;;;16.42;58.38
80149;BME280;69473;42.426;26.644;2023-07-28T00:55:59;98920.69;;;16.48;56.78
80149;BME280;69473;42.426;26.644;2023-07-28T00:58:26;98912.25;;;16.68;54.90
80149;BME280;69473;42.426;26.644;2023-07-28T01:00:51;98907.09;;;16.96;53.85
80149;BME280;69473;42.426;26.644;2023-07-28T01:03:19;98923.09;;;17.15;52.81
80149;BME280;69473;42.426;26.644;2023-07-28T01:08:55;98912.72;;;17.12;53.06
80149;BME280;69473;42.426;26.644;2023-07-28T01:11:22;98930.94;;;17.15;53.07
80149;BME280;69473;42.426;26.644;2023-07-28T01:13:47;98921.66;;;17.05;52.80
80149;BME280;69473;42.426;26.644;2023-07-28T01:16:14;98914.03;;;16.97;53.36
80149;BME280;69473;42.426;26.644;2023-07-28T01:18:40;98921.84;;;16.99;52.75
80149;BME280;69473;42.426;26.644;2023-07-28T01:21:09;98922.13;;;16.90;53.40
80149;BME280;69473;42.426;26.644;2023-07-28T01:24:05;98932.31;;;16.99;53.17
80149;BME280;69473;42.426;26.644;2023-07-28T01:26:38;98932.41;;;16.96;53.74
80149;BME280;69473;42.426;26.644;2023-07-28T01:29:05;98931.59;;;16.94;53.22
80149;BME280;69473;42.426;26.644;2023-07-28T01:31:32;98929.16;;;16.88;54.64
80149;BME280;69473;42.426;26.644;2023-07-28T01:33:58;98931.75;;;16.89;54.39
80149;BME280;69473;42.426;26.644;2023-07-28T01:36:23;98932.78;;;16.83;54.17
80149;BME280;69473;42.426;26.644;2023-07-28T01:38:49;98941.72;;;16.76;54.86
80149;BME280;69473;42.426;26.644;2023-07-28T01:41:15;98935.06;;;16.63;55.14
80149;BME280;69473;42.426;26.644;2023-07-28T01:43:40;98937.81;;;16.58;55.04
80149;BME280;69473;42.426;26.644;2023-07-28T01:46:07;98946.56;;;16.57;55.79
80149;BME280;69473;42.426;26.644;2023-07-28T01:48:33;98952.00;;;16.50;56.62
80149;BME280;69473;42.426;26.644;2023-07-28T01:50:59;98951.78;;;16.26;56.61
80149;BME280;69473;42.426;26.644;2023-07-28T01:53:24;98958.88;;;16.21;56.99
80149;BME280;69473;42.426;26.644;2023-07-28T01:55:50;98964.25;;;16.15;57.86
80149;BME280;69473;42.426;26.644;2023-07-28T01:58:15;98965.31;;;16.08;58.45
80149;BME280;69473;42.426;26.644;2023-07-28T02:00:41;98969.66;;;16.09;58.81
80149;BME280;69473;42.426;26.644;2023-07-28T02:03:06;98953.72;;;16.18;58.82
80149;BME280;69473;42.426;26.644;2023-07-28T02:05:32;98960.50;;;16.25;57.84
80149;BME280;69473;42.426;26.644;2023-07-28T02:07:58;98958.72;;;16.27;58.11
80149;BME280;69473;42.426;26.644;2023-07-28T02:10:23;98961.81;;;16.09;57.82
80149;BME280;69473;42.426;26.644;2023-07-28T02:12:49;98959.13;;;16.12;57.40
80149;BME280;69473;42.426;26.644;2023-07-28T02:15:16;98965.88;;;16.19;57.13
80149;BME280;69473;42.426;26.644;2023-07-28T02:17:42;98965.81;;;16.22;57.30
80149;BME280;69473;42.426;26.644;2023-07-28T02:20:08;98969.09;;;16.30;56.88
80149;BME280;69473;42.426;26.644;2023-07-28T02:22:39;98970.72;;;16.34;57.03
80149;BME280;69473;42.426;26.644;2023-07-28T02:25:05;98967.22;;;16.35;57.39
80149;BME280;69473;42.426;26.644;2023-07-28T02:27:31;98963.72;;;16.02;57.78
80149;BME280;69473;42.426;26.644;2023-07-28T02:29:57;98978.47;;;16.05;57.69
80149;BME280;69473;42.426;26.644;2023-07-28T02:32:22;98977.50;;;16.09;58.49
80149;BME280;69473;42.426;26.644;2023-07-28T02:34:48;98980.47;;;15.93;59.37
80149;BME280;69473;42.426;26.644;2023-07-28T02:37:14;98982.50;;;15.82;59.64
80149;BME280;69473;42.426;26.644;2023-07-28T02:39:40;98992.75;;;15.53;59.71
80149;BME280;69473;42.426;26.644;2023-07-28T02:42:06;99006.72;;;15.50;60.42
80149;BME280;69473;42.426;26.644;2023-07-28T02:44:32;98997.06;;;15.54;61.04
80149;BME280;69473;42.426;26.644;2023-07-28T02:46:57;98996.84;;;15.63;61.18
80149;BME280;69473;42.426;26.644;2023-07-28T02:49:23;98995.16;;;15.62;60.47
80149;BME280;69473;42.426;26.644;2023-07-28T02:51:48;98995.88;;;15.68;60.01
80149;BME280;69473;42.426;26.644;2023-07-28T02:54:14;98987.84;;;15.76;59.55
80149;BME280;69473;42.426;26.644;2023-07-28T02:56:39;98992.94;;;15.82;59.72
80149;BME280;69473;42.426;26.644;2023-07-28T02:59:05;99000.31;;;15.65;59.49
80149;BME280;69473;42.426;26.644;2023-07-28T03:01:31;99005.28;;;15.37;61.94
80149;BME280;69473;42.426;26.644;2023-07-28T03:04:03;99005.94;;;15.46;60.92
80149;BME280;69473;42.426;26.644;2023-07-28T03:06:29;99002.63;;;15.38;61.59
80149;BME280;69473;42.426;26.644;2023-07-28T03:08:54;99005.03;;;15.47;61.49
80149;BME280;69473;42.426;26.644;2023-07-28T03:11:20;99017.34;;;15.42;61.48
80149;BME280;69473;42.426;26.644;2023-07-28T03:13:46;99015.00;;;15.30;62.70
80149;BME280;69473;42.426;26.644;2023-07-28T03:16:11;99016.66;;;15.34;62.54
80149;BME280;69473;42.426;26.644;2023-07-28T03:18:37;99011.38;;;15.37;61.58
80149;BME280;69473;42.426;26.644;2023-07-28T03:21:03;99014.69;;;15.45;61.84
80149;BME280;69473;42.426;26.644;2023-07-28T03:23:28;99008.44;;;15.51;61.41
80149;BME280;69473;42.426;26.644;2023-07-28T03:25:54;99005.81;;;15.53;61.27
80149;BME280;69473;42.426;26.644;2023-07-28T03:28:19;99007.44;;;15.57;61.01
80149;BME280;69473;42.426;26.644;2023-07-28T03:30:45;99022.91;;;15.66;60.30
80149;BME280;69473;42.426;26.644;2023-07-28T03:33:11;99021.09;;;15.71;60.68
80149;BME280;69473;42.426;26.644;2023-07-28T03:35:37;99022.59;;;15.81;59.57
80149;BME280;69473;42.426;26.644;2023-07-28T03:38:02;99029.38;;;15.88;60.26
80149;BME280;69473;42.426;26.644;2023-07-28T03:40:29;99022.22;;;15.97;60.96
80149;BME280;69473;42.426;26.644;2023-07-28T03:42:55;99024.88;;;15.95;60.77
80149;BME280;69473;42.426;26.644;2023-07-28T03:45:21;99032.53;;;16.03;60.99
80149;BME280;69473;42.426;26.644;2023-07-28T03:47:46;99024.47;;;16.10;60.01
80149;BME280;69473;42.426;26.644;2023-07-28T03:50:12;99033.69;;;16.25;59.63
80149;BME280;69473;42.426;26.644;2023-07-28T03:52:37;99041.91;;;16.46;59.56
80149;BME280;69473;42.426;26.644;2023-07-28T03:55:03;99038.16;;;16.56;58.71
80149;BME280;69473;42.426;26.644;2023-07-28T03:57:29;99039.94;;;16.54;58.35
80149;BME280;69473;42.426;26.644;2023-07-28T03:59:54;99039.31;;;16.78;57.86
80149;BME280;69473;42.426;26.644;2023-07-28T04:02:20;99044.34;;;16.86;58.31
80149;BME280;69473;42.426;26.644;2023-07-28T04:04:46;99044.97;;;17.25;56.92
80149;BME280;69473;42.426;26.644;2023-07-28T04:07:11;99042.22;;;17.30;56.52
80149;BME280;69473;42.426;26.644;2023-07-28T04:09:37;99043.84;;;17.64;56.36
80149;BME280;69473;42.426;26.644;2023-07-28T04:12:02;99051.84;;;17.29;56.08
80149;BME280;69473;42.426;26.644;2023-07-28T04:14:28;99058.22;;;17.21;55.09
80149;BME280;69473;42.426;26.644;2023-07-28T04:16:53;99051.41;;;17.45;54.87
80149;BME280;69473;42.426;26.644;2023-07-28T04:19:19;99046.28;;;17.70;54.26
80149;BME280;69473;42.426;26.644;2023-07-28T04:21:45;99049.31;;;18.12;53.87
80149;BME280;69473;42.426;26.644;2023-07-28T04:24:11;99054.81;;;18.31;54.76
80149;BME280;69473;42.426;26.644;2023-07-28T04:26:37;99047.78;;;18.58;53.44
80149;BME280;69473;42.426;26.644;2023-07-28T04:29:02;99044.19;;;18.36;52.30
80149;BME280;69473;42.426;26.644;2023-07-28T04:31:28;99046.59;;;18.42;51.81
80149;BME280;69473;42.426;26.644;2023-07-28T04:33:53;99046.75;;;18.62;51.60
80149;BME280;69473;42.426;26.644;2023-07-28T04:36:19;99053.53;;;18.69;51.68
80149;BME280;69473;42.426;26.644;2023-07-28T04:38:45;99050.81;;;18.73;51.64
80149;BME280;69473;42.426;26.644;2023-07-28T04:41:10;99049.41;;;18.87;51.91
80149;BME280;69473;42.426;26.644;2023-07-28T04:43:36;99042.44;;;18.86;50.60
80149;BME280;69473;42.426;26.644;2023-07-28T04:46:01;99044.94;;;18.91;50.54
80149;BME280;69473;42.426;26.644;2023-07-28T04:48:27;99038.19;;;19.07;50.88
80149;BME280;69473;42.426;26.644;2023-07-28T04:50:53;99038.19;;;19.07;50.75
80149;BME280;69473;42.426;26.644;2023-07-28T04:53:19;99045.16;;;19.32;51.05
80149;BME280;69473;42.426;26.644;2023-07-28T04:55:45;99046.41;;;19.45;51.01
80149;BME280;69473;42.426;26.644;2023-07-28T04:58:10;99053.13;;;19.52;50.58
80149;BME280;69473;42.426;26.644;2023-07-28T05:00:36;99055.66;;;19.79;50.20
80149;BME280;69473;42.426;26.644;2023-07-28T05:03:02;99060.78;;;19.82;49.67
80149;BME280;69473;42.426;26.644;2023-07-28T05:05:29;99059.69;;;19.88;48.97
80149;BME280;69473;42.426;26.644;2023-07-28T05:07:55;99057.34;;;20.02;47.25
80149;BME280;69473;42.426;26.644;2023-07-28T05:10:20;99059.47;;;19.47;51.02
80149;BME280;69473;42.426;26.644;2023-07-28T05:12:46;99067.16;;;19.29;50.79
80149;BME280;69473;42.426;26.644;2023-07-28T05:15:14;99066.53;;;19.70;51.19
80149;BME280;69473;42.426;26.644;2023-07-28T05:17:40;99082.19;;;19.73;50.89
80149;BME280;69473;42.426;26.644;2023-07-28T05:20:06;99081.81;;;19.82;49.99
80149;BME280;69473;42.426;26.644;2023-07-28T05:22:31;99080.09;;;19.81;50.56
80149;BME280;69473;42.426;26.644;2023-07-28T05:24:57;99083.28;;;20.11;49.15
80149;BME280;69473;42.426;26.644;2023-07-28T05:27:22;99086.56;;;20.38;48.92
80149;BME280;69473;42.426;26.644;2023-07-28T05:29:48;99085.00;;;19.90;48.67
80149;BME280;69473;42.426;26.644;2023-07-28T05:32:14;99097.00;;;19.97;50.49
80149;BME280;69473;42.426;26.644;2023-07-28T05:34:42;99096.75;;;20.25;48.59
80149;BME280;69473;42.426;26.644;2023-07-28T05:37:08;99095.84;;;20.69;48.44
80149;BME280;69473;42.426;26.644;2023-07-28T05:39:34;99089.53;;;20.93;46.42
80149;BME280;69473;42.426;26.644;2023-07-28T05:42:00;99094.50;;;20.59;46.24
80149;BME280;69473;42.426;26.644;2023-07-28T05:44:25;99084.13;;;20.76;46.03
80149;BME280;69473;42.426;26.644;2023-07-28T05:46:51;99086.59;;;21.20;46.34
80149;BME280;69473;42.426;26.644;2023-07-28T05:49:16;99088.41;;;21.59;44.88
80149;BME280;69473;42.426;26.644;2023-07-28T05:51:41;99089.81;;;21.66;45.93
80149;BME280;69473;42.426;26.644;2023-07-28T05:54:07;99092.78;;;21.77;45.17
80149;BME280;69473;42.426;26.644;2023-07-28T05:56:33;99078.50;;;22.00;45.18
80149;BME280;69473;42.426;26.644;2023-07-28T05:58:58;99089.09;;;21.81;44.53
80149;BME280;69473;42.426;26.644;2023-07-28T06:01:24;99087.38;;;22.18;44.06
80149;BME280;69473;42.426;26.644;2023-07-28T06:03:52;99097.03;;;21.99;43.50
80149;BME280;69473;42.426;26.644;2023-07-28T06:06:21;99095.13;;;22.39;42.65
80149;BME280;69473;42.426;26.644;2023-07-28T06:08:47;99087.13;;;23.76;39.70
80149;BME280;69473;42.426;26.644;2023-07-28T06:11:12;99086.41;;;24.04;38.95
80149;BME280;69473;42.426;26.644;2023-07-28T06:13:38;99084.06;;;24.76;36.85
80149;BME280;69473;42.426;26.644;2023-07-28T06:16:03;99078.44;;;25.82;35.60
80149;BME280;69473;42.426;26.644;2023-07-28T06:18:29;99082.72;;;26.12;35.58
80149;BME280;69473;42.426;26.644;2023-07-28T06:20:54;99087.34;;;26.35;34.74
80149;BME280;69473;42.426;26.644;2023-07-28T06:23:20;99094.94;;;25.87;35.49
80149;BME280;69473;42.426;26.644;2023-07-28T06:25:46;99094.94;;;25.87;35.31
80149;BME280;69473;42.426;26.644;2023-07-28T06:28:12;99093.34;;;26.79;34.79
80149;BME280;69473;42.426;26.644;2023-07-28T06:30:38;99098.72;;;27.17;33.60
80149;BME280;69473;42.426;26.644;2023-07-28T06:33:08;99100.13;;;27.72;33.40
80149;BME280;69473;42.426;26.644;2023-07-28T06:35:34;99106.38;;;27.34;32.69
80149;BME280;69473;42.426;26.644;2023-07-28T06:38:01;99103.25;;;28.03;32.24
80149;BME280;69473;42.426;26.644;2023-07-28T06:40:27;99100.81;;;27.37;32.68
80149;BME280;69473;42.426;26.644;2023-07-28T06:42:53;99107.06;;;28.95;30.77
80149;BME280;69473;42.426;26.644;2023-07-28T06:45:20;99096.88;;;30.56;28.37
80149;BME280;69473;42.426;26.644;2023-07-28T06:47:46;99100.25;;;30.90;27.69
80149;BME280;69473;42.426;26.644;2023-07-28T06:50:11;99100.06;;;30.82;26.47
80149;BME280;69473;42.426;26.644;2023-07-28T06:52:37;99095.84;;;29.81;27.77
80149;BME280;69473;42.426;26.644;2023-07-28T06:55:03;99104.00;;;30.67;27.12
80149;BME280;69473;42.426;26.644;2023-07-28T06:57:29;99095.50;;;29.52;28.87
80149;BME280;69473;42.426;26.644;2023-07-28T06:59:55;99093.94;;;30.91;25.99
80149;BME280;69473;42.426;26.644;2023-07-28T07:02:21;99102.56;;;29.76;27.20
80149;BME280;69473;42.426;26.644;2023-07-28T07:04:47;99107.22;;;30.49;26.95
80149;BME280;69473;42.426;26.644;2023-07-28T07:07:12;99099.34;;;31.52;25.31
80149;BME280;69473;42.426;26.644;2023-07-28T07:09:38;99087.91;;;30.57;25.04
80149;BME280;69473;42.426;26.644;2023-07-28T07:12:04;99095.56;;;31.65;24.23
80149;BME280;69473;42.426;26.644;2023-07-28T07:14:30;99090.63;;;31.09;26.37
80149;BME280;69473;42.426;26.644;2023-07-28T07:16:56;99094.63;;;32.35;24.19
80149;BME280;69473;42.426;26.644;2023-07-28T07:19:22;99082.59;;;33.45;22.77
80149;BME280;69473;42.426;26.644;2023-07-28T07:21:47;99084.38;;;33.26;23.67
80149;BME280;69473;42.426;26.644;2023-07-28T07:24:14;99090.03;;;31.87;25.16
80149;BME280;69473;42.426;26.644;2023-07-28T07:26:40;99087.72;;;32.81;24.47
80149;BME280;69473;42.426;26.644;2023-07-28T07:29:07;99085.56;;;32.17;25.42
80149;BME280;69473;42.426;26.644;2023-07-28T07:31:33;99082.34;;;34.03;23.52
80149;BME280;69473;42.426;26.644;2023-07-28T07:33:59;99080.75;;;35.42;21.95
80149;BME280;69473;42.426;26.644;2023-07-28T07:36:25;99079.03;;;35.67;20.88
80149;BME280;69473;42.426;26.644;2023-07-28T07:38:51;99074.91;;;34.68;22.66
80149;BME280;69473;42.426;26.644;2023-07-28T07:41:17;99068.16;;;35.77;21.95
80149;BME280;69473;42.426;26.644;2023-07-28T07:43:46;99070.75;;;33.38;22.56
80149;BME280;69473;42.426;26.644;2023-07-28T07:46:13;99080.84;;;32.50;24.27
80149;BME280;69473;42.426;26.644;2023-07-28T07:48:39;99083.09;;;28.36;28.84
80149;BME280;69473;42.426;26.644;2023-07-28T07:51:04;99086.91;;;28.20;30.73
80149;BME280;69473;42.426;26.644;2023-07-28T07:53:30;99078.03;;;27.59;30.83
80149;BME280;69473;42.426;26.644;2023-07-28T07:55:55;99074.44;;;27.34;31.16
80149;BME280;69473;42.426;26.644;2023-07-28T07:58:21;99079.34;;;27.15;31.21
80149;BME280;69473;42.426;26.644;2023-07-28T08:00:46;99077.50;;;26.77;32.42
80149;BME280;69473;42.426;26.644;2023-07-28T08:03:12;99080.47;;;26.33;31.83
80149;BME280;69473;42.426;26.644;2023-07-28T08:05:37;99075.47;;;26.68;31.29
80149;BME280;69473;42.426;26.644;2023-07-28T08:08:03;99074.81;;;26.52;30.54
80149;BME280;69473;42.426;26.644;2023-07-28T08:10:30;99075.91;;;26.08;32.59
80149;BME280;69473;42.426;26.644;2023-07-28T08:12:56;99073.44;;;26.32;32.56
80149;BME280;69473;42.426;26.644;2023-07-28T08:15:21;99073.22;;;26.35;32.94
80149;BME280;69473;42.426;26.644;2023-07-28T08:17:47;99081.72;;;26.27;30.61
80149;BME280;69473;42.426;26.644;2023-07-28T08:20:12;99080.25;;;26.09;32.04
80149;BME280;69473;42.426;26.644;2023-07-28T08:22:38;99072.22;;;26.23;29.39
80149;BME280;69473;42.426;26.644;2023-07-28T08:25:04;99067.88;;;26.22;29.03
80149;BME280;69473;42.426;26.644;2023-07-28T08:27:30;99061.47;;;26.12;29.28
80149;BME280;69473;42.426;26.644;2023-07-28T08:29:56;99062.84;;;26.44;29.61
80149;BME280;69473;42.426;26.644;2023-07-28T08:32:21;99068.66;;;26.64;30.32
80149;BME280;69473;42.426;26.644;2023-07-28T08:34:47;99051.66;;;25.99;31.24
80149;BME280;69473;42.426;26.644;2023-07-28T08:37:13;99067.59;;;25.99;30.93
80149;BME280;69473;42.426;26.644;2023-07-28T08:39:39;99062.25;;;26.14;32.03
80149;BME280;69473;42.426;26.644;2023-07-28T08:42:05;99058.88;;;26.52;31.49
80149;BME280;69473;42.426;26.644;2023-07-28T08:44:34;99056.09;;;26.66;31.01
80149;BME280;69473;42.426;26.644;2023-07-28T08:47:01;99049.31;;;26.62;29.42
80149;BME280;69473;42.426;26.644;2023-07-28T08:49:27;99045.56;;;25.70;29.11
80149;BME280;69473;42.426;26.644;2023-07-28T08:51:59;99052.69;;;25.41;29.89
80149;BME280;69473;42.426;26.644;2023-07-28T08:54:26;99052.16;;;25.77;29.99
80149;BME280;69473;42.426;26.644;2023-07-28T08:56:51;99040.50;;;25.80;29.70
80149;BME280;69473;42.426;26.644;2023-07-28T08:59:29;99041.25;;;25.96;28.70
80149;BME280;69473;42.426;26.644;2023-07-28T09:01:56;99031.31;;;26.13;29.68
80149;BME280;69473;42.426;26.644;2023-07-28T09:04:26;99037.03;;;26.07;29.67
80149;BME280;69473;42.426;26.644;2023-07-28T09:06:51;99035.41;;;26.31;32.00
80149;BME280;69473;42.426;26.644;2023-07-28T09:09:22;99029.53;;;26.66;31.18
80149;BME280;69473;42.426;26.644;2023-07-28T09:11:50;99030.41;;;26.79;31.13
80149;BME280;69473;42.426;26.644;2023-07-28T09:14:17;99036.44;;;26.56;29.99
80149;BME280;69473;42.426;26.644;2023-07-28T09:16:47;99025.78;;;26.16;29.62
80149;BME280;69473;42.426;26.644;2023-07-28T09:19:14;99040.16;;;26.66;31.92
80149;BME280;69473;42.426;26.644;2023-07-28T09:21:43;99031.88;;;26.96;29.85
80149;BME280;69473;42.426;26.644;2023-07-28T09:24:10;99026.16;;;26.89;30.24
80149;BME280;69473;42.426;26.644;2023-07-28T09:26:45;99026.44;;;26.98;29.82
80149;BME280;69473;42.426;26.644;2023-07-28T09:29:19;99019.78;;;27.05;30.83
80149;BME280;69473;42.426;26.644;2023-07-28T09:31:47;99012.97;;;27.13;30.45
80149;BME280;69473;42.426;26.644;2023-07-28T09:34:25;99018.19;;;26.24;28.27
80149;BME280;69473;42.426;26.644;2023-07-28T09:36:56;99013.16;;;26.85;28.94
80149;BME280;69473;42.426;26.644;2023-07-28T09:39:22;99006.16;;;26.84;28.24
80149;BME280;69473;42.426;26.644;2023-07-28T09:41:49;99008.69;;;26.85;29.64
80149;BME280;69473;42.426;26.644;2023-07-28T09:44:15;99012.91;;;26.37;29.53
80149;BME280;69473;42.426;26.644;2023-07-28T09:49:21;99008.69;;;26.60;29.97
80149;BME280;69473;42.426;26.644;2023-07-28T09:51:48;99007.22;;;26.81;30.01
80149;BME280;69473;42.426;26.644;2023-07-28T09:54:28;98998.81;;;26.49;28.97
80149;BME280;69473;42.426;26.644;2023-07-28T09:56:59;98997.75;;;26.12;28.79
80149;BME280;69473;42.426;26.644;2023-07-28T09:59:38;99000.63;;;26.09;28.59
80149;BME280;69473;42.426;26.644;2023-07-28T10:02:05;98999.69;;;26.35;27.74
80149;BME280;69473;42.426;26.644;2023-07-28T10:04:34;98997.25;;;26.32;29.74
80149;BME280;69473;42.426;26.644;2023-07-28T10:07:01;98992.63;;;27.00;30.56
80149;BME280;69473;42.426;26.644;2023-07-28T10:09:29;98993.81;;;27.21;30.46
80149;BME280;69473;42.426;26.644;2023-07-28T10:12:04;98992.94;;;27.33;28.42
80149;BME280;69473;42.426;26.644;2023-07-28T10:14:36;98986.59;;;27.23;28.36
80149;BME280;69473;42.426;26.644;2023-07-28T10:17:05;98988.09;;;26.89;27.88
80149;BME280;69473;42.426;26.644;2023-07-28T10:19:35;98989.97;;;27.00;28.64
80149;BME280;69473;42.426;26.644;2023-07-28T10:22:04;98985.31;;;27.16;27.32
80149;BME280;69473;42.426;26.644;2023-07-28T10:24:56;98983.19;;;27.21;28.23
80149;BME280;69473;42.426;26.644;2023-07-28T10:30:04;98980.16;;;27.13;28.97
80149;BME280;69473;42.426;26.644;2023-07-28T10:32:37;98975.50;;;27.04;29.26
80149;BME280;69473;42.426;26.644;2023-07-28T10:35:09;98982.53;;;27.05;27.77
80149;BME280;69473;42.426;26.644;2023-07-28T10:37:47;98976.59;;;26.88;28.90
80149;BME280;69473;42.426;26.644;2023-07-28T10:40:28;98977.94;;;27.32;27.86
80149;BME280;69473;42.426;26.644;2023-07-28T10:42:56;98963.81;;;26.93;27.47
80149;BME280;69473;42.426;26.644;2023-07-28T10:45:24;98963.19;;;26.90;27.30
80149;BME280;69473;42.426;26.644;2023-07-28T10:47:52;98954.44;;;27.01;27.44
80149;BME280;69473;42.426;26.644;2023-07-28T10:50:18;98960.00;;;26.46;28.43
80149;BME280;69473;42.426;26.644;2023-07-28T10:52:45;98947.22;;;27.03;28.66
80149;BME280;69473;42.426;26.644;2023-07-28T10:55:23;98947.41;;;27.25;27.66
80149;BME280;69473;42.426;26.644;2023-07-28T10:57:51;98949.31;;;26.61;28.21
80149;BME280;69473;42.426;26.644;2023-07-28T11:00:19;98949.13;;;27.01;30.23
80149;BME280;69473;42.426;26.644;2023-07-28T11:02:47;98939.16;;;27.17;27.54
80149;BME280;69473;42.426;26.644;2023-07-28T11:05:20;98943.38;;;27.32;27.72
80149;BME280;69473;42.426;26.644;2023-07-28T11:07:48;98939.38;;;27.14;27.65
80149;BME280;69473;42.426;26.644;2023-07-28T11:10:14;98937.28;;;27.30;27.71
80149;BME280;69473;42.426;26.644;2023-07-28T11:12:44;98924.88;;;27.18;26.74
80149;BME280;69473;42.426;26.644;2023-07-28T11:15:12;98919.78;;;27.15;26.48
80149;BME280;69473;42.426;26.644;2023-07-28T11:17:43;98919.53;;;27.55;27.85
80149;BME280;69473;42.426;26.644;2023-07-28T11:20:22;98909.19;;;26.89;27.99
80149;BME280;69473;42.426;26.644;2023-07-28T11:23:08;98919.34;;;27.21;27.49
80149;BME280;69473;42.426;26.644;2023-07-28T11:25:35;98914.38;;;27.40;27.01
80149;BME280;69473;42.426;26.644;2023-07-28T11:28:03;98911.09;;;27.61;28.23
80149;BME280;69473;42.426;26.644;2023-07-28T11:30:36;98902.88;;;27.40;26.75
80149;BME280;69473;42.426;26.644;2023-07-28T11:33:09;98906.34;;;27.77;26.38
80149;BME280;69473;42.426;26.644;2023-07-28T11:35:38;98908.63;;;28.06;26.89
80149;BME280;69473;42.426;26.644;2023-07-28T11:38:05;98902.34;;;28.18;25.92
80149;BME280;69473;42.426;26.644;2023-07-28T11:40:30;98894.84;;;28.12;26.32
80149;BME280;69473;42.426;26.644;2023-07-28T11:42:56;98900.44;;;28.31;28.25
80149;BME280;69473;42.426;26.644;2023-07-28T11:45:23;98893.19;;;28.33;26.68
80149;BME280;69473;42.426;26.644;2023-07-28T11:50:34;98887.44;;;28.51;28.40
80149;BME280;69473;42.426;26.644;2023-07-28T11:53:00;98881.13;;;28.52;27.98
80149;BME280;69473;42.426;26.644;2023-07-28T11:55:26;98876.78;;;28.04;25.33
80149;BME280;69473;42.426;26.644;2023-07-28T11:57:53;98877.66;;;28.16;25.94
80149;BME280;69473;42.426;26.644;2023-07-28T12:00:20;98879.84;;;27.52;26.54
80149;BME280;69473;42.426;26.644;2023-07-28T12:03:04;98884.25;;;27.64;26.16
80149;BME280;69473;42.426;26.644;2023-07-28T12:05:30;98887.25;;;27.83;25.84
80149;BME280;69473;42.426;26.644;2023-07-28T12:07:56;98883.59;;;28.31;28.50
80149;BME280;69473;42.426;26.644;2023-07-28T12:10:21;98876.03;;;28.49;26.11
80149;BME280;69473;42.426;26.644;2023-07-28T12:12:47;98877.47;;;28.53;25.73
80149;BME280;69473;42.426;26.644;2023-07-28T12:15:29;98875.31;;;28.58;26.59
80149;BME280;69473;42.426;26.644;2023-07-28T12:18:03;98868.28;;;28.46;24.62
80149;BME280;69473;42.426;26.644;2023-07-28T12:20:42;98867.22;;;28.02;25.24
80149;BME280;69473;42.426;26.644;2023-07-28T12:23:16;98867.22;;;28.02;25.92
80149;BME280;69473;42.426;26.644;2023-07-28T12:25:42;98855.88;;;28.11;24.12
80149;BME280;69473;42.426;26.644;2023-07-28T12:28:08;98860.69;;;28.06;25.15
80149;BME280;69473;42.426;26.644;2023-07-28T12:30:35;98859.19;;;27.91;25.42
80149;BME280;69473;42.426;26.644;2023-07-28T12:33:00;98855.84;;;28.22;26.34
80149;BME280;69473;42.426;26.644;2023-07-28T12:35:27;98848.16;;;28.53;25.34
80149;BME280;69473;42.426;26.644;2023-07-28T12:37:57;98832.31;;;28.40;26.78
80149;BME280;69473;42.426;26.644;2023-07-28T12:40:26;98833.38;;;28.83;26.49
80149;BME280;69473;42.426;26.644;2023-07-28T12:42:53;98839.44;;;28.62;25.44
80149;BME280;69473;42.426;26.644;2023-07-28T12:45:19;98833.63;;;28.68;26.69
80149;BME280;69473;42.426;26.644;2023-07-28T12:47:47;98809.38;;;28.15;25.43
80149;BME280;69473;42.426;26.644;2023-07-28T12:50:13;98832.28;;;28.29;24.32
80149;BME280;69473;42.426;26.644;2023-07-28T12:52:38;98825.09;;;28.18;24.15
80149;BME280;69473;42.426;26.644;2023-07-28T12:55:04;98820.81;;;28.51;26.53
80149;BME280;69473;42.426;26.644;2023-07-28T12:57:31;98811.34;;;28.58;24.51
80149;BME280;69473;42.426;26.644;2023-07-28T12:59:57;98817.28;;;28.62;24.74